Latest Weather Observations for Cocos Island

IDW60801

Issued at 3:53 pm WST Wednesday 24 April 2019 (issued every 10 minutes, with the page automatically refreshed every 10 minutes)

About weather observations | Map of weather stations | Latest weather observations for WA | Other Formats
Station Details ID: 200284 Name: COCOS ISLAND AIRPORT Lat: -12.19 Lon: 96.83 Height: 3.0 m
Data from the previous 72 hours. | See also: Recent months at Cocos Island
Date/Time
WST
Temp
°C
App
Temp
°C
Dew
Point
°C
Rel
Hum
%
Delta-T
°C
Wind Press
QNH
hPa
Press
MSL
hPa
Rain since
9am
mm
Dir  Spd
km/h
Gust
km/h
Spd
kts
Gust
kts
24/03:30pm 26.9 23.7 24.7 88 1.5 ENE 50 57 27 31 1008.1 1008.1 0.0
24/03:00pm 27.3 24.2 24.3 84 2.1 ENE 48 59 26 32 1008.6 1008.6 0.0
24/02:30pm 27.4 24.6 24.7 85 1.9 ENE 48 56 26 30 1008.7 1008.7 0.0
24/02:00pm 27.6 25.3 25.0 86 1.8 ENE 46 54 25 29 1008.9 1008.9 0.0
24/01:30pm 27.1 24.4 25.0 88 1.5 ENE 48 57 26 31 1009.3 1009.3 0.0
24/01:09pm 26.9 24.0 24.6 87 1.6 ENE 48 57 26 31 1009.7 1009.7 0.0
24/01:00pm 27.0 23.4 24.1 84 2.0 E 50 57 27 31 1009.9 1009.9 0.0
24/12:30pm 26.4 23.2 24.8 91 1.1 ENE 50 65 27 35 1010.3 1010.3 0.0
24/12:25pm 26.3 24.5 24.3 89 1.4 ENE 41 65 22 35 1010.4 1010.4 0.0
24/12:00pm 27.0 25.7 25.0 89 1.4 ENE 41 50 22 27 1010.5 1010.5 0.0
24/11:53am 26.9 25.0 24.7 88 1.5 ENE 43 52 23 28 1010.6 1010.6 0.0
24/11:30am 26.9 24.8 24.3 86 1.8 ENE 43 50 23 27 1010.6 1010.6 0.0
24/11:00am 26.7 25.0 24.4 87 1.6 ENE 41 52 22 28 1010.6 1010.6 34.2
24/10:30am 26.8 24.0 24.2 86 1.8 ENE 46 59 25 32 1010.9 1010.9 34.2
24/10:14am 26.8 23.9 23.4 81 2.3 ENE 44 63 24 34 1010.9 1010.9 34.0
24/10:00am 26.6 24.6 24.6 89 1.4 ENE 43 50 23 27 1010.9 1010.9 34.0
24/09:30am 26.7 24.3 24.2 86 1.7 ENE 44 56 24 30 1010.6 1010.6 33.8
24/09:00am 26.6 25.8 24.7 89 1.3 ENE 37 44 20 24 1010.2 1010.2 33.8
24/08:30am 26.1 23.8 24.4 90 1.2 ENE 44 52 24 28 1009.6 1009.6 33.6
24/08:06am 26.1 25.0 24.7 92 1.0 ENE 39 48 21 26 1009.4 1009.4 33.6
24/08:00am 26.1 25.0 24.8 92 0.9 ENE 39 46 21 25 1009.3 1009.3 33.6
24/07:30am 25.6 23.5 24.7 95 0.6 E 44 54 24 29 1008.8 1008.8 33.6
24/07:19am 25.3 22.3 24.4 95 0.6 E 48 57 26 31 1008.6 1008.6 33.6
24/07:04am 25.7 23.8 25.0 96 0.5 ENE 44 54 24 29 1008.4 1008.4 33.6
24/07:00am 25.6 23.3 24.9 96 0.5 ENE 46 54 25 29 1008.4 1008.4 33.6
24/06:30am 25.1 24.4 24.8 98 0.2 E 37 52 20 28 1008.7 1008.7 32.6
24/06:15am 25.6 24.6 25.0 96 0.4 E 39 52 21 28 1008.5 1008.5 27.8
24/06:00am 25.6 25.2 24.7 95 0.6 ENE 35 44 19 24 1008.5 1008.5 25.8
24/05:30am 25.3 24.9 24.7 96 0.4 E 35 41 19 22 1008.4 1008.4 22.8
24/05:00am 25.0 24.9 24.3 96 0.5 ENE 32 37 17 20 1008.4 1008.4 20.0
24/04:30am 25.1 23.6 24.1 94 0.7 ENE 39 44 21 24 1008.5 1008.5 15.6
24/04:10am 25.5 26.8 24.6 95 0.6 ENE 26 41 14 22 1008.5 1008.5 14.4
24/04:00am 25.7 25.5 24.3 92 1.0 ENE 33 48 18 26 1008.4 1008.4 14.4
24/03:53am 25.8 23.8 24.5 92 0.9 ENE 43 61 23 33 1008.5 1008.5 14.4
24/03:30am 26.5 24.0 24.6 89 1.3 ENE 46 54 25 29 1008.5 1008.5 14.2
24/03:00am 26.5 25.8 24.8 90 1.2 E 37 43 20 23 1008.6 1008.6 14.2
24/02:30am 27.1 26.9 25.0 88 1.5 ENE 35 46 19 25 1008.6 1008.6 14.2
24/02:00am 27.0 27.6 25.3 90 1.2 E 32 37 17 20 1008.7 1008.7 14.0
24/01:30am 27.0 27.2 25.0 89 1.4 E 33 41 18 22 1009.0 1009.0 14.0
24/01:00am 26.9 27.2 24.9 89 1.4 E 32 35 17 19 1009.5 1009.5 14.0
24/12:30am 27.0 27.2 25.1 89 1.3 E 33 41 18 22 1009.8 1009.8 14.0
24/12:00am 27.1 27.6 25.2 89 1.3 E 32 37 17 20 1009.7 1009.7 14.0
 
Date/Time
WST
Temp
°C
App
Temp
°C
Dew
Point
°C
Rel
Hum
%
Delta-T
°C
Wind Press
QNH
hPa
Press
MSL
hPa
Rain since
9am
mm
Dir  Spd
km/h
Gust
km/h
Spd
kts
Gust
kts
23/11:30pm 27.0 27.0 24.7 87 1.6 E 33 41 18 22 1009.7 1009.7 14.0
23/11:00pm 26.9 27.0 24.9 89 1.4 E 33 39 18 21 1009.6 1009.6 14.0
23/10:55pm 26.9 27.0 24.9 89 1.4 E 33 39 18 21 1009.5 1009.5 14.0
23/10:30pm 27.0 27.6 25.3 90 1.2 E 32 41 17 22 1009.6 1009.6 14.0
23/10:07pm 27.0 27.4 25.3 90 1.2 E 33 41 18 22 1009.6 1009.6 14.0
23/10:00pm 26.9 27.5 25.3 91 1.1 E 32 37 17 20 1009.5 1009.5 14.0
23/09:35pm 26.6 27.2 25.3 93 0.9 E 32 37 17 20 1009.4 1009.4 14.0
23/09:30pm 26.6 26.9 25.2 92 1.0 E 33 39 18 21 1009.3 1009.3 14.0
23/09:00pm 26.5 26.7 25.1 92 1.0 E 33 39 18 21 1009.0 1009.0 14.0
23/08:55pm 26.5 26.6 24.9 91 1.1 E 33 39 18 21 1009.0 1009.0 14.0
23/08:51pm 26.6 26.9 24.9 90 1.2 E 32 39 17 21 1009.0 1009.0 14.0
23/08:37pm 26.6 26.9 24.9 90 1.2 E 32 41 17 22 1008.8 1008.8 14.0
23/08:32pm 26.6 26.2 24.7 89 1.3 E 35 43 19 23 1008.7 1008.7 14.0
23/08:30pm 26.6 26.3 24.9 90 1.2 E 35 44 19 24 1008.7 1008.7 14.0
23/08:11pm 26.7 26.5 25.0 90 1.2 E 35 43 19 23 1008.5 1008.5 14.0
23/08:00pm 26.7 25.7 25.0 90 1.2 E 39 44 21 24 1008.4 1008.4 14.0
23/07:56pm 26.8 25.8 24.9 89 1.3 E 39 44 21 24 1008.4 1008.4 14.0
23/07:30pm 26.9 26.3 24.9 89 1.4 E 37 44 20 24 1008.1 1008.1 14.0
23/07:15pm 26.8 27.0 25.1 90 1.2 E 33 39 18 21 1007.9 1007.9 14.0
23/07:00pm 26.6 26.5 25.2 92 1.0 E 35 41 19 22 1007.6 1007.6 14.0
23/06:30pm 26.5 26.8 24.9 91 1.1 E 32 35 17 19 1007.4 1007.4 14.0
23/06:00pm 26.2 27.1 24.6 91 1.1 E 28 32 15 17 1007.4 1007.4 13.8
23/05:31pm 26.3 27.1 25.0 92 0.9 E 30 35 16 19 1007.5 1007.5 13.8
23/05:30pm 26.3 27.1 25.0 92 0.9 E 30 35 16 19 1007.5 1007.5 13.8
23/05:07pm 26.4 27.7 25.3 94 0.8 E 28 32 15 17 1007.4 1007.4 13.8
23/05:00pm 26.3 28.3 25.2 94 0.8 E 24 30 13 16 1007.3 1007.3 13.8
23/04:30pm 25.7 29.6 24.8 95 0.6 E 13 20 7 11 1007.3 1007.3 13.8
23/04:00pm 25.4 29.5 24.5 95 0.6 E 11 19 6 10 1007.4 1007.4 13.6
23/03:45pm 25.3 28.9 24.4 95 0.6 E 13 20 7 11 1007.6 1007.6 13.6
23/03:30pm 25.0 28.6 24.3 96 0.5 E 13 20 7 11 1007.9 1007.9 13.4
23/03:00pm 25.1 27.4 24.4 96 0.5 E 20 35 11 19 1008.3 1008.3 11.0
23/02:30pm 25.1 25.4 24.2 95 0.6 E 30 35 16 19 1008.5 1008.5 8.0
23/02:00pm 25.3 24.9 24.6 96 0.5 E 35 43 19 23 1008.7 1008.7 5.6
23/01:30pm 25.6 27.3 24.6 94 0.7 ENE 24 37 13 20 1009.1 1009.1 2.0
23/01:00pm 25.6 26.7 24.3 92 0.9 NE 26 37 14 20 1009.4 1009.4 0.2
23/12:50pm 26.5 27.8 24.0 86 1.7 NE 24 41 13 22 1009.4 1009.4 0.0
23/12:30pm 26.9 26.1 24.7 88 1.5 ENE 37 44 20 24 1009.4 1009.4 0.0
23/12:00pm 28.1 28.2 24.8 82 2.3 E 33 39 18 21 1009.4 1009.4 0.0
23/11:30am 28.0 28.4 25.1 84 2.0 E 32 39 17 21 1009.8 1009.8 0.0
23/11:20am 28.0 28.2 25.1 84 2.0 E 33 43 18 23 1009.8 1009.8 0.0
23/11:04am 28.0 28.9 25.3 85 1.9 E 30 35 16 19 1009.7 1009.7 0.0
23/11:00am 28.1 29.0 25.3 85 2.0 E 30 35 16 19 1009.6 1009.6 9.8
23/10:30am 27.8 28.4 25.4 87 1.7 E 32 39 17 21 1009.3 1009.3 9.8
23/10:00am 27.2 27.3 24.8 87 1.7 ENE 33 37 18 20 1009.4 1009.4 9.8
23/09:30am 26.9 26.9 24.7 88 1.5 ENE 33 39 18 21 1009.1 1009.1 9.8
23/09:00am 27.0 27.6 25.3 90 1.2 E 32 37 17 20 1008.9 1008.9 9.8
23/08:30am 26.7 27.0 24.8 89 1.3 E 32 37 17 20 1008.2 1008.2 9.8
23/08:00am 26.4 26.8 25.0 92 1.0 E 32 37 17 20 1008.0 1008.0 9.8
23/07:30am 26.3 25.9 24.7 91 1.1 E 35 43 19 23 1007.9 1007.9 9.6
23/07:00am 26.4 26.1 24.2 88 1.5 ENE 33 41 18 22 1007.4 1007.4 9.4
23/06:30am 26.4 26.7 24.8 91 1.1 ENE 32 37 17 20 1007.2 1007.2 9.4
23/06:00am 26.9 27.8 25.3 91 1.1 E 30 35 16 19 1006.9 1006.9 9.4
23/05:30am 26.7 27.8 25.0 90 1.2 E 28 32 15 17 1007.1 1007.1 9.4
23/05:00am 26.9 27.5 24.7 88 1.5 E 30 35 16 19 1007.1 1007.1 9.4
23/04:30am 26.6 27.9 25.3 93 0.9 E 28 33 15 18 1007.0 1007.0 9.4
23/04:00am 26.6 28.1 25.0 91 1.1 E 26 32 14 17 1006.9 1006.9 9.4
23/03:30am 26.6 28.6 25.2 92 1.0 E 24 32 13 17 1007.6 1007.6 9.4
23/03:00am 26.8 27.1 24.8 89 1.4 E 32 37 17 20 1008.0 1008.0 9.4
23/02:30am 26.8 27.6 24.5 87 1.6 E 28 35 15 19 1008.2 1008.2 9.4
23/02:00am 26.7 28.1 24.8 89 1.3 E 26 30 14 16 1008.7 1008.7 9.4
23/01:30am 26.6 27.0 24.4 88 1.5 E 30 35 16 19 1009.1 1009.1 9.4
23/01:00am 26.6 26.2 24.1 86 1.7 ENE 33 39 18 21 1008.9 1008.9 9.4
23/12:30am 26.5 28.0 24.3 88 1.5 ENE 24 33 13 18 1009.1 1009.1 9.4
23/12:00am 26.1 24.6 24.7 92 1.0 ENE 41 48 22 26 1009.3 1009.3 9.4
 
Date/Time
WST
Temp
°C
App
Temp
°C
Dew
Point
°C
Rel
Hum
%
Delta-T
°C
Wind Press
QNH
hPa
Press
MSL
hPa
Rain since
9am
mm
Dir  Spd
km/h
Gust
km/h
Spd
kts
Gust
kts
22/11:30pm 27.2 28.5 25.2 89 1.4 E 28 33 15 18 1009.3 1009.3 9.4
22/11:00pm 27.1 27.5 25.1 89 1.4 E 32 35 17 19 1009.1 1009.1 9.4
22/10:30pm 27.1 27.7 24.8 87 1.6 E 30 39 16 21 1009.1 1009.1 9.4
22/10:00pm 27.2 26.5 24.8 87 1.7 E 37 44 20 24 1009.0 1009.0 9.4
22/09:30pm 27.1 27.7 24.8 87 1.6 E 30 33 16 18 1009.1 1009.1 9.4
22/09:00pm 26.7 27.1 24.4 87 1.6 E 30 37 16 20 1008.5 1008.5 9.4
22/08:30pm 26.6 27.1 24.6 89 1.4 E 30 35 16 19 1008.2 1008.2 9.4
22/08:00pm 26.4 27.4 24.8 91 1.1 E 28 35 15 19 1008.1 1008.1 9.4
22/07:30pm 26.4 27.6 24.5 89 1.3 ENE 26 33 14 18 1007.8 1007.8 9.4
22/07:07pm 26.2 26.5 24.3 89 1.3 ENE 30 35 16 19 1007.1 1007.1 9.4
22/07:00pm 26.2 27.0 24.5 90 1.2 ENE 28 35 15 19 1007.0 1007.0 9.4
22/06:46pm 26.1 28.9 25.0 94 0.8 NE 19 35 10 19 1006.8 1006.8 9.4
22/06:32pm 25.7 28.4 24.7 94 0.7 NE 19 28 10 15 1006.8 1006.8 9.4
22/06:30pm 25.7 28.4 24.7 94 0.7 NE 19 30 10 16 1006.8 1006.8 9.4
22/06:20pm 26.4 29.6 25.0 92 1.0 E 17 32 9 17 1006.9 1006.9 8.0
22/06:00pm 26.9 31.0 25.2 90 1.2 ESE 13 20 7 11 1006.5 1006.5 7.2
22/05:30pm 26.6 30.8 25.3 93 0.9 E 13 22 7 12 1006.6 1006.6 7.2
22/05:00pm 26.3 28.8 24.7 91 1.1 ESE 20 35 11 19 1006.6 1006.6 7.2
22/04:30pm 27.1 27.9 25.0 88 1.5 E 30 35 16 19 1006.8 1006.8 7.2
22/04:00pm 26.7 27.5 25.1 91 1.1 E 30 33 16 18 1007.0 1007.0 7.2
22/03:30pm 25.8 26.4 24.8 94 0.7 ENE 30 35 16 19 1007.4 1007.4 7.2
22/03:14pm 25.1 24.8 24.8 98 0.2 ENE 35 43 19 23 1007.5 1007.5 7.2
22/03:00pm 25.7 25.8 24.8 95 0.6 ENE 33 46 18 25 1007.7 1007.7 7.0
22/02:59pm 25.6 25.7 24.9 96 0.5 ENE 33 43 18 23 1007.8 1007.8 7.0
22/02:39pm 26.0 26.2 25.0 94 0.7 ENE 33 48 18 26 1007.9 1007.9 4.4
22/02:37pm 26.0 25.6 24.7 92 0.9 ENE 35 48 19 26 1007.9 1007.9 3.6
22/02:35pm 26.4 25.5 24.5 89 1.3 E 37 46 20 25 1007.9 1007.9 3.4
22/02:30pm 27.2 26.4 25.2 89 1.4 E 39 46 21 25 1007.8 1007.8 3.2
22/02:00pm 26.4 27.0 24.8 91 1.1 E 30 41 16 22 1007.5 1007.5 3.2
22/01:50pm 26.3 26.5 24.7 91 1.1 E 32 44 17 24 1007.5 1007.5 2.8
22/01:30pm 25.9 27.0 24.9 94 0.7 E 28 43 15 23 1007.9 1007.9 2.8
22/01:28pm 26.0 27.1 24.9 94 0.8 E 28 41 15 22 1007.9 1007.9 2.6
22/01:13pm 26.1 26.5 24.5 91 1.1 E 30 37 16 20 1008.0 1008.0 2.6
22/01:06pm 26.0 25.4 24.4 91 1.1 E 35 50 19 27 1008.2 1008.2 2.4
22/01:00pm 26.0 24.5 24.7 92 0.9 E 41 50 22 27 1008.3 1008.3 2.4
22/12:48pm 26.1 24.4 25.1 94 0.7 E 43 54 23 29 1008.4 1008.4 2.2
22/12:42pm 26.5 26.9 25.1 92 1.0 E 32 54 17 29 1008.4 1008.4 1.2
22/12:36pm 26.9 27.7 24.5 87 1.7 ESE 28 46 15 25 1008.4 1008.4 0.8
22/12:30pm 26.9 28.2 24.7 88 1.5 ESE 26 43 14 23 1008.4 1008.4 0.8
22/12:24pm 26.7 28.6 25.0 90 1.2 ESE 24 35 13 19 1008.4 1008.4 0.8
22/12:04pm 26.2 27.6 24.8 92 1.0 E 26 39 14 21 1008.6 1008.6 0.8
22/12:00pm 26.5 27.8 24.6 89 1.3 E 26 39 14 21 1008.6 1008.6 0.4
22/11:50am 26.8 27.3 24.6 88 1.5 E 30 44 16 24 1008.7 1008.7 0.4
22/11:30am 27.3 28.8 25.5 90 1.3 E 28 43 15 23 1008.6 1008.6 0.4
22/11:28am 27.3 28.4 25.5 90 1.3 E 30 43 16 23 1008.6 1008.6 0.4
22/11:00am 28.2 29.2 24.8 82 2.4 E 28 39 15 21 1008.5 1008.5 3.4
22/10:34am 28.0 29.7 24.6 82 2.4 E 24 39 13 21 1008.2 1008.2 3.4
22/10:30am 28.0 30.2 24.9 83 2.2 E 22 33 12 18 1008.2 1008.2 3.4
22/10:00am 28.3 27.4 24.4 79 2.7 E 37 46 20 25 1007.9 1007.9 3.4
22/09:41am 28.2 26.6 24.0 78 2.9 E 39 48 21 26 1007.7 1007.7 3.4
22/09:30am 28.0 27.4 24.4 81 2.5 E 35 50 19 27 1007.7 1007.7 3.4
22/09:00am 27.7 28.3 24.7 84 2.1 E 30 39 16 21 1007.3 1007.3 3.4
22/08:36am 26.9 29.7 25.2 90 1.2 E 20 28 11 15 1007.2 1007.2 3.4
22/08:30am 26.6 29.4 25.0 91 1.1 ESE 19 26 10 14 1007.1 1007.1 3.4
22/08:17am 26.0 26.9 24.6 92 1.0 ESE 28 54 15 29 1006.9 1006.9 3.4
22/08:11am 26.0 26.0 23.8 88 1.5 E 30 54 16 29 1006.9 1006.9 3.2
22/08:08am 26.8 27.2 23.7 83 2.1 E 28 54 15 29 1006.9 1006.9 3.2
22/08:00am 27.6 30.2 24.9 85 1.9 E 20 30 11 16 1006.7 1006.7 3.2
22/07:30am 27.5 30.2 24.8 85 1.9 E 19 28 10 15 1006.7 1006.7 3.2
22/07:00am 27.3 28.4 24.3 84 2.1 E 26 33 14 18 1006.5 1006.5 3.2
22/06:30am 26.9 26.7 24.3 86 1.8 E 33 39 18 21 1006.0 1006.0 3.2
22/06:00am 26.7 27.3 24.8 89 1.3 E 30 37 16 20 1006.0 1006.0 3.2
22/05:30am 26.7 26.2 24.5 88 1.5 E 35 41 19 22 1005.9 1005.9 3.2
22/05:00am 26.8 26.7 24.2 86 1.8 E 32 35 17 19 1006.3 1006.3 3.2
22/04:30am 26.6 26.9 24.3 87 1.6 E 30 35 16 19 1006.4 1006.4 3.2
22/04:00am 26.5 26.6 24.5 89 1.4 E 32 37 17 20 1006.5 1006.5 3.2
22/03:30am 26.5 26.4 24.3 88 1.5 E 32 39 17 21 1007.0 1007.0 3.2
22/03:20am 26.4 26.4 24.4 89 1.4 E 32 37 17 20 1007.1 1007.1 3.2
22/03:03am 26.5 26.8 24.8 90 1.2 E 32 37 17 20 1007.3 1007.3 3.2
22/03:00am 26.5 26.6 24.8 90 1.2 ENE 33 37 18 20 1007.4 1007.4 3.2
22/02:30am 26.7 25.1 24.5 88 1.5 ENE 41 48 22 26 1007.6 1007.6 3.2
22/02:09am 26.8 26.5 24.8 89 1.4 E 35 43 19 23 1007.9 1007.9 3.2
22/02:00am 26.8 26.0 24.6 88 1.5 E 37 44 20 24 1008.0 1008.0 3.2
22/01:49am 26.7 26.9 25.0 90 1.2 E 33 39 18 21 1008.1 1008.1 3.2
22/01:30am 26.6 27.1 24.6 89 1.4 E 30 37 16 20 1008.3 1008.3 3.2
22/01:00am 26.7 26.2 24.5 88 1.5 E 35 43 19 23 1008.3 1008.3 3.2
22/12:30am 26.5 25.7 24.6 89 1.3 E 37 46 20 25 1008.3 1008.3 3.2
22/12:00am 26.5 26.2 24.8 90 1.2 E 35 44 19 24 1008.4 1008.4 3.2
 
Date/Time
WST
Temp
°C
App
Temp
°C
Dew
Point
°C
Rel
Hum
%
Delta-T
°C
Wind Press
QNH
hPa
Press
MSL
hPa
Rain since
9am
mm
Dir  Spd
km/h
Gust
km/h
Spd
kts
Gust
kts
21/11:30pm 26.6 26.0 24.9 90 1.2 E 37 46 20 25 1008.6 1008.6 3.2
21/11:13pm 26.7 25.6 24.2 86 1.7 E 37 44 20 24 1008.5 1008.5 3.2
21/11:00pm 26.6 25.1 24.7 89 1.3 E 41 50 22 27 1008.6 1008.6 3.2
21/10:30pm 26.5 24.4 24.3 88 1.5 E 43 57 23 31 1008.5 1008.5 3.2
21/10:16pm 27.1 25.6 24.8 87 1.6 E 41 48 22 26 1008.4 1008.4 3.2
21/10:00pm 27.0 26.0 24.9 88 1.5 E 39 48 21 26 1008.4 1008.4 3.2
21/09:30pm 26.9 25.9 25.0 89 1.3 E 39 46 21 25 1008.3 1008.3 3.2
21/09:00pm 26.4 25.1 24.5 89 1.3 E 39 46 21 25 1008.1 1008.1 3.2
21/08:30pm 26.2 23.9 24.3 89 1.3 E 44 50 24 27 1008.0 1008.0 3.0
21/08:06pm 25.9 23.0 24.0 89 1.3 E 46 54 25 29 1007.7 1007.7 2.8
21/08:00pm 25.8 22.3 23.6 88 1.5 E 48 57 26 31 1007.6 1007.6 2.8
21/07:34pm 25.6 21.9 24.0 91 1.1 E 50 59 27 32 1007.5 1007.5 2.4
21/07:30pm 25.6 22.0 24.1 91 1.0 E 50 59 27 32 1007.4 1007.4 2.2
21/07:01pm 26.3 25.3 25.0 92 0.9 E 39 59 21 32 1007.2 1007.2 1.2
21/07:00pm 26.3 25.5 24.7 91 1.1 E 37 57 20 31 1007.2 1007.2 1.2
21/06:55pm 26.3 25.9 24.7 91 1.1 E 35 46 19 25 1007.2 1007.2 1.0
21/06:30pm 26.6 26.4 25.0 91 1.1 E 35 43 19 23 1007.0 1007.0 0.8
21/06:00pm 26.8 26.9 25.4 92 1.0 ENE 35 44 19 24 1006.8 1006.8 0.4
21/05:30pm 27.0 25.1 24.1 84 2.0 E 41 48 22 26 1006.5 1006.5 0.2

Other formats

Comma delimited format used in spreadsheet applications
http://www.bom.gov.au/fwo/IDW60801/IDW60801.96996.axf

JavaScript Object Notation format (JSON) in row-major order
http://www.bom.gov.au/fwo/IDW60801/IDW60801.96996.json

Data quality

Most of these data are generated automatically and are frequently updated. Quality checks on data are not normally performed. It is possible for incorrect values to appear. Refer to information at About Latest Weather Observations and please check the disclaimer before using these data.